createdAt,value
2023-01-11T00:01:11.734Z,99367.78
2023-01-11T00:03:39.695Z,99370.75
2023-01-11T00:06:08.331Z,99391.09
2023-01-11T00:08:36.249Z,99402.09
2023-01-11T00:11:05.769Z,99414.59
2023-01-11T00:13:33.712Z,99417.78
2023-01-11T00:16:06.935Z,99432.81
2023-01-11T00:18:34.883Z,99430.47
2023-01-11T00:21:05.545Z,99421.47
2023-01-11T00:23:33.560Z,99424.13
2023-01-11T00:26:05.128Z,99429.47
2023-01-11T00:28:33.069Z,99435.63
2023-01-11T00:31:01.082Z,99434.97
2023-01-11T00:33:29.004Z,99442.81
2023-01-11T00:35:56.921Z,99434.13
2023-01-11T00:38:42.208Z,99432.44
2023-01-11T00:41:25.391Z,99434.78
2023-01-11T00:44:07.223Z,99433.59
2023-01-11T00:46:52.527Z,99419.41
2023-01-11T00:49:20.463Z,99430.91
2023-01-11T00:51:48.456Z,99443.56
2023-01-11T00:54:16.422Z,99456.06
2023-01-11T00:56:45.784Z,99452.25
2023-01-11T00:59:13.808Z,99453.41
2023-01-11T01:01:41.815Z,99457.75
2023-01-11T01:04:09.844Z,99439.06
2023-01-11T01:06:37.857Z,99453.06
2023-01-11T01:09:05.833Z,99446.75
2023-01-11T01:11:33.825Z,99442.41
2023-01-11T01:14:20.656Z,99442.41
2023-01-11T01:16:48.617Z,99437.41
2023-01-11T01:19:16.717Z,99431.06
2023-01-11T01:21:44.648Z,99440.75
2023-01-11T01:24:12.653Z,99443.72
2023-01-11T01:26:40.651Z,99437.41
2023-01-11T01:29:09.965Z,99446.41
2023-01-11T01:31:37.913Z,99435.88
2023-01-11T01:34:06.606Z,99440.06
2023-01-11T01:36:34.552Z,99438.25
2023-01-11T01:39:02.579Z,99444.72
2023-01-11T01:41:30.574Z,99433.22
2023-01-11T01:44:00.265Z,99414.28
2023-01-11T01:46:30.140Z,99433.97
2023-01-11T01:48:59.037Z,99438.31
2023-01-11T01:51:28.434Z,99440.66
2023-01-11T01:53:58.006Z,99444.00
2023-01-11T01:56:27.595Z,99446.00
2023-01-11T01:58:58.228Z,99448.31
2023-01-11T02:01:43.625Z,99456.00
2023-01-11T02:04:15.436Z,99452.75
2023-01-11T02:06:43.485Z,99465.59
2023-01-11T02:09:15.844Z,99461.28
2023-01-11T02:11:45.074Z,99454.28
2023-01-11T02:14:15.098Z,99441.56
2023-01-11T02:16:43.077Z,99456.63
2023-01-11T02:19:18.648Z,99455.47
2023-01-11T02:21:55.541Z,99449.84
2023-01-11T02:24:36.576Z,99449.69
2023-01-11T02:27:34.771Z,99468.34
2023-01-11T02:30:14.160Z,99477.34
2023-01-11T02:32:47.830Z,99475.97
2023-01-11T02:35:18.927Z,99477.13
2023-01-11T02:37:51.473Z,99474.31
2023-01-11T02:40:23.227Z,99469.66
2023-01-11T02:43:06.504Z,99454.44
2023-01-11T02:45:40.629Z,99474.00
2023-01-11T02:48:14.927Z,99458.09
2023-01-11T02:50:45.346Z,99476.28
2023-01-11T02:53:17.272Z,99475.78
2023-01-11T02:55:48.479Z,99484.22
2023-01-11T02:58:17.143Z,99485.06
2023-01-11T03:00:46.468Z,99488.97
2023-01-11T03:03:16.157Z,99499.94
2023-01-11T03:05:47.105Z,99496.91
2023-01-11T03:08:40.667Z,99495.75
2023-01-11T03:11:10.035Z,99501.59
2023-01-11T03:13:45.318Z,99500.63
2023-01-11T03:16:21.828Z,99499.63
2023-01-11T03:18:53.289Z,99495.28
2023-01-11T03:21:27.722Z,99492.22
2023-01-11T03:24:00.095Z,99520.22
2023-01-11T03:26:32.606Z,99530.22
2023-01-11T03:29:05.378Z,99521.22
2023-01-11T03:31:36.144Z,99519.22
2023-01-11T03:34:08.169Z,99528.91
2023-01-11T03:36:36.871Z,99514.34
2023-01-11T03:39:07.065Z,99508.47
2023-01-11T03:41:36.130Z,99503.16
2023-01-11T03:44:04.411Z,99507.50
2023-01-11T03:46:33.497Z,99508.81
2023-01-11T03:49:03.819Z,99514.16
2023-01-11T03:51:33.666Z,99525.66
2023-01-11T03:54:03.203Z,99519.78
2023-01-11T03:56:33.491Z,99516.41
2023-01-11T03:59:01.620Z,99515.59
2023-01-11T04:01:29.573Z,99520.41
2023-01-11T04:03:57.571Z,99534.03
2023-01-11T04:06:27.004Z,99531.66
2023-01-11T04:08:54.945Z,99543.34
2023-01-11T04:11:22.867Z,99541.66
2023-01-11T04:13:50.776Z,99526.13
2023-01-11T04:16:18.827Z,99532.91
2023-01-11T04:18:46.780Z,99529.47
2023-01-11T04:21:14.707Z,99532.72
2023-01-11T04:23:44.039Z,99530.69
2023-01-11T04:26:11.992Z,99529.47
2023-01-11T04:28:39.929Z,99527.25
2023-01-11T04:31:07.887Z,99523.38
2023-01-11T04:33:35.806Z,99527.31
2023-01-11T04:36:06.142Z,99537.59
2023-01-11T04:38:34.480Z,99543.34
2023-01-11T04:41:17.717Z,99545.03
2023-01-11T04:43:45.670Z,99539.69
2023-01-11T04:46:13.634Z,99549.75
2023-01-11T04:48:41.489Z,99556.16
2023-01-11T04:51:09.607Z,99566.69
2023-01-11T04:53:37.639Z,99576.03
2023-01-11T04:56:07.933Z,99569.56
2023-01-11T04:58:38.081Z,99576.25
2023-01-11T05:01:09.924Z,99564.63
2023-01-11T05:03:37.924Z,99560.81
2023-01-11T05:06:06.588Z,99554.38
2023-01-11T05:08:34.774Z,99554.03
2023-01-11T05:11:03.985Z,99567.38
2023-01-11T05:13:50.081Z,99567.53
2023-01-11T05:16:18.875Z,99567.84
2023-01-11T05:18:47.778Z,99567.28
2023-01-11T05:21:16.607Z,99563.94
2023-01-11T05:23:44.596Z,99575.19
2023-01-11T05:26:13.744Z,99577.16
2023-01-11T05:28:43.038Z,99578.84
2023-01-11T05:31:10.977Z,99582.19
2023-01-11T05:33:38.908Z,99582.56
2023-01-11T05:36:08.290Z,99588.31
2023-01-11T05:38:36.194Z,99589.69
2023-01-11T05:41:05.460Z,99593.03
2023-01-11T05:43:33.628Z,99579.84
2023-01-11T05:46:02.046Z,99573.41
2023-01-11T05:48:30.009Z,99582.09
2023-01-11T05:50:59.658Z,99586.50
2023-01-11T05:53:28.743Z,99587.91
2023-01-11T05:55:56.931Z,99560.53
2023-01-11T05:58:25.741Z,99589.88
2023-01-11T06:00:54.706Z,99592.38
2023-01-11T06:03:24.937Z,99598.78
2023-01-11T06:05:53.004Z,99591.63
2023-01-11T06:08:20.999Z,99594.97
2023-01-11T06:10:52.306Z,99608.69
2023-01-11T06:13:29.076Z,99615.00
2023-01-11T06:15:59.900Z,99620.03
2023-01-11T06:18:29.407Z,99626.72
2023-01-11T06:20:57.362Z,99628.66
2023-01-11T06:23:25.570Z,99631.53
2023-01-11T06:25:53.518Z,99633.22
2023-01-11T06:28:21.504Z,99628.59
2023-01-11T06:30:52.996Z,99632.31
2023-01-11T06:33:20.976Z,99633.66
2023-01-11T06:35:50.264Z,99642.06
2023-01-11T06:38:18.477Z,99641.06
2023-01-11T06:40:52.957Z,99649.38
2023-01-11T06:43:20.919Z,99649.06
2023-01-11T06:45:48.872Z,99656.94
2023-01-11T06:48:17.013Z,99658.44
2023-01-11T06:50:45.015Z,99661.81
2023-01-11T06:53:14.346Z,99663.09
2023-01-11T06:55:42.311Z,99664.09
2023-01-11T06:58:10.278Z,99667.75
2023-01-11T07:00:38.275Z,99670.09
2023-01-11T07:03:06.426Z,99667.84
2023-01-11T07:05:34.640Z,99679.28
2023-01-11T07:08:02.630Z,99688.97
2023-01-11T07:10:32.010Z,99686.44
2023-01-11T07:12:59.948Z,99688.34
2023-01-11T07:15:27.888Z,99687.22
2023-01-11T07:17:56.006Z,99692.06
2023-01-11T07:20:24.164Z,99685.75
2023-01-11T07:22:52.174Z,99694.44
2023-01-11T07:25:20.236Z,99699.47
2023-01-11T07:27:49.547Z,99712.84
2023-01-11T07:30:18.068Z,99722.19
2023-01-11T07:32:45.992Z,99722.88
2023-01-11T07:35:13.912Z,99723.56
2023-01-11T07:37:42.075Z,99740.72
2023-01-11T07:40:11.339Z,99733.72
2023-01-11T07:42:56.754Z,99727.53
2023-01-11T07:45:34.322Z,99735.03
2023-01-11T07:48:10.596Z,99752.09
2023-01-11T07:50:41.209Z,99747.91
2023-01-11T07:53:10.197Z,99759.44
2023-01-11T07:55:39.748Z,99766.16
2023-01-11T07:58:07.822Z,99774.53
2023-01-11T08:00:37.083Z,99768.56
2023-01-11T08:03:05.176Z,99777.34
2023-01-11T08:05:33.231Z,99780.63
2023-01-11T08:08:01.545Z,99775.00
2023-01-11T08:10:29.634Z,99772.69
2023-01-11T08:13:15.161Z,99775.06
2023-01-11T08:15:44.493Z,99784.59
2023-01-11T08:18:12.679Z,99789.56
2023-01-11T08:20:40.742Z,99799.69
2023-01-11T08:23:09.502Z,99805.34
2023-01-11T08:25:37.473Z,99808.25
2023-01-11T08:28:06.628Z,99807.25
2023-01-11T08:30:34.716Z,99816.63
2023-01-11T08:33:04.063Z,99816.63
2023-01-11T08:35:32.225Z,99824.25
2023-01-11T08:38:00.211Z,99825.63
2023-01-11T08:40:28.232Z,99823.78
2023-01-11T08:42:57.229Z,99824.75
2023-01-11T08:45:25.247Z,99823.56
2023-01-11T08:47:53.397Z,99821.88
2023-01-11T08:50:22.997Z,99827.56
2023-01-11T08:52:51.734Z,99821.38
2023-01-11T08:55:19.976Z,99827.78
2023-01-11T08:57:48.113Z,99842.41
2023-01-11T09:00:17.015Z,99840.00
2023-01-11T09:02:45.825Z,99851.44
2023-01-11T09:05:13.887Z,99851.19
2023-01-11T09:07:43.288Z,99850.19
2023-01-11T09:10:12.071Z,99860.44
2023-01-11T09:12:40.000Z,99853.72
2023-01-11T09:15:09.769Z,99851.72
2023-01-11T09:17:37.721Z,99858.44
2023-01-11T09:20:06.521Z,99857.53
2023-01-11T09:22:34.910Z,99854.97
2023-01-11T09:25:04.275Z,99862.28
2023-01-11T09:27:32.210Z,99863.34
2023-01-11T09:30:01.600Z,99855.19
2023-01-11T09:32:29.570Z,99852.34
2023-01-11T09:34:59.772Z,99859.06
2023-01-11T09:37:27.745Z,99861.78
2023-01-11T09:39:55.650Z,99866.53
2023-01-11T09:42:35.049Z,99860.88
2023-01-11T09:45:07.261Z,99876.41
2023-01-11T09:47:38.582Z,99842.44
2023-01-11T09:50:11.468Z,99867.31
2023-01-11T09:52:42.238Z,99870.50
2023-01-11T09:55:14.486Z,99853.09
2023-01-11T09:57:50.404Z,99865.97
2023-01-11T10:00:24.176Z,99864.06
2023-01-11T10:03:01.588Z,99870.78
2023-01-11T10:05:38.284Z,99875.81
2023-01-11T10:18:29.802Z,99893.16
2023-01-11T10:18:34.070Z,99891.53
2023-01-11T10:19:56.887Z,99907.22
2023-01-11T10:22:27.964Z,99905.69
2023-01-11T10:24:57.430Z,99898.66
2023-01-11T10:27:29.994Z,99897.19
2023-01-11T10:30:12.857Z,99888.72
2023-01-11T10:32:54.352Z,99887.56
2023-01-11T10:35:41.274Z,99895.59
2023-01-11T10:38:30.781Z,99904.56
2023-01-11T10:41:06.661Z,99890.34
2023-01-11T10:43:35.811Z,99883.16
2023-01-11T10:48:40.891Z,99886.09
2023-01-11T10:51:14.605Z,99888.94
2023-01-11T10:53:44.687Z,99878.56
2023-01-11T10:56:21.255Z,99877.94
2023-01-11T10:59:04.044Z,99880.50
2023-01-11T11:01:45.246Z,99882.53
2023-01-11T11:04:24.847Z,99879.16
2023-01-11T11:06:55.685Z,99886.59
2023-01-11T11:09:26.040Z,99881.69
2023-01-11T11:11:56.472Z,99883.00
2023-01-11T11:14:29.623Z,99885.91
2023-01-11T11:17:04.635Z,99884.03
2023-01-11T11:19:33.450Z,99887.00
2023-01-11T11:22:01.415Z,99891.09
2023-01-11T11:24:34.866Z,99891.16
2023-01-11T11:27:04.564Z,99895.66
2023-01-11T11:29:33.791Z,99898.75
2023-01-11T11:32:03.278Z,99898.81
2023-01-11T11:34:31.328Z,99892.78
2023-01-11T11:36:59.589Z,99896.31
2023-01-11T11:39:28.409Z,99902.34
2023-01-11T11:41:57.412Z,99903.53
2023-01-11T11:44:26.494Z,99903.69
2023-01-11T11:46:58.424Z,99898.94
2023-01-11T11:49:28.378Z,99900.47
2023-01-11T11:51:56.449Z,99893.59
2023-01-11T11:54:27.373Z,99897.28
2023-01-11T11:56:55.384Z,99898.94
2023-01-11T11:59:23.951Z,99910.66
2023-01-11T12:01:57.930Z,99901.25
2023-01-11T12:04:34.245Z,99889.88
2023-01-11T12:07:07.053Z,99886.19
2023-01-11T12:09:35.238Z,99882.53
2023-01-11T12:12:03.282Z,99886.63
2023-01-11T12:14:32.391Z,99894.19
2023-01-11T12:17:00.355Z,99898.88
2023-01-11T12:19:31.308Z,99879.81
2023-01-11T12:22:11.511Z,99903.47
2023-01-11T12:24:39.446Z,99892.47
2023-01-11T12:27:11.857Z,99896.84
2023-01-11T12:29:54.869Z,99881.78
2023-01-11T12:32:32.733Z,99889.50
2023-01-11T12:35:20.410Z,99893.16
2023-01-11T12:38:21.661Z,99895.78
2023-01-11T12:41:19.352Z,99883.34
2023-01-11T12:43:57.775Z,99875.63
2023-01-11T12:46:28.568Z,99878.91
2023-01-11T12:49:06.016Z,99888.34
2023-01-11T12:51:43.704Z,99899.03
2023-01-11T12:54:21.453Z,99894.25
2023-01-11T12:56:56.655Z,99887.16
2023-01-11T12:59:34.484Z,99920.97
2023-01-11T13:02:07.027Z,99914.25
2023-01-11T13:04:58.294Z,99923.34
2023-01-11T13:07:34.454Z,99919.84
2023-01-11T13:10:10.319Z,99927.78
2023-01-11T13:12:42.366Z,99935.47
2023-01-11T13:15:33.554Z,99933.78
2023-01-11T13:18:06.024Z,99920.50
2023-01-11T13:20:58.537Z,99924.19
2023-01-11T13:23:33.628Z,99932.94
2023-01-11T13:26:02.362Z,99940.53
2023-01-11T13:28:30.988Z,99941.81
2023-01-11T13:30:59.030Z,99949.31
2023-01-11T13:33:28.234Z,99953.34
2023-01-11T13:35:57.619Z,99958.88
2023-01-11T13:38:34.690Z,99954.25
2023-01-11T13:41:09.939Z,99946.22
2023-01-11T13:43:40.095Z,99929.28
2023-01-11T13:46:11.958Z,99925.53
2023-01-11T13:48:42.637Z,99924.41
2023-01-11T13:51:16.486Z,99932.78
2023-01-11T13:53:48.270Z,99952.88
2023-01-11T13:56:19.119Z,99969.28
2023-01-11T13:58:51.570Z,99967.59
2023-01-11T14:01:20.986Z,99961.69
2023-01-11T14:03:50.942Z,99981.88
2023-01-11T14:06:32.965Z,99983.63
2023-01-11T14:09:24.433Z,99986.78
2023-01-11T14:11:55.328Z,99972.47
2023-01-11T14:14:31.013Z,99966.34
2023-01-11T14:17:19.608Z,99983.31
2023-01-11T14:19:50.790Z,99972.34
2023-01-11T14:22:23.339Z,99971.13
2023-01-11T14:24:56.611Z,99983.25
2023-01-11T14:27:43.553Z,99980.19
2023-01-11T14:30:18.269Z,99994.84
2023-01-11T14:33:08.770Z,99998.88
2023-01-11T14:36:03.309Z,100009.16
2023-01-11T14:38:40.784Z,100010.16
2023-01-11T14:41:43.425Z,100023.09
2023-01-11T14:44:17.161Z,100022.78
2023-01-11T14:46:53.510Z,99987.91
2023-01-11T14:49:29.125Z,100018.06
2023-01-11T14:51:58.203Z,100026.34
2023-01-11T14:54:27.784Z,100049.22
2023-01-11T14:56:57.284Z,100059.19
2023-01-11T14:59:38.999Z,100063.09
2023-01-11T15:02:26.182Z,100056.63
2023-01-11T15:05:10.155Z,100060.28
2023-01-11T15:07:41.073Z,100064.78
2023-01-11T15:10:41.910Z,100062.25
2023-01-11T15:13:14.545Z,100048.78
2023-01-11T15:16:00.060Z,100065.22
2023-01-11T15:18:28.025Z,100029.59
2023-01-11T15:20:56.956Z,100056.91
2023-01-11T15:23:24.910Z,100065.22
2023-01-11T15:26:00.680Z,100058.09
2023-01-11T15:28:45.848Z,100055.97
2023-01-11T15:31:36.737Z,100055.28
2023-01-11T15:34:06.867Z,100053.44
2023-01-11T15:36:52.780Z,100053.31
2023-01-11T15:39:33.104Z,100041.41
2023-01-11T15:42:10.791Z,100049.66
2023-01-11T15:44:53.111Z,100028.94
2023-01-11T15:47:35.544Z,100031.59
2023-01-11T15:50:20.008Z,100061.31
2023-01-11T15:53:32.878Z,100057.44
2023-01-11T15:56:22.274Z,100066.00
2023-01-11T15:59:05.275Z,100071.31
2023-01-11T16:01:35.360Z,100077.22
2023-01-11T16:04:05.468Z,100074.00
2023-01-11T16:06:42.161Z,100062.06
2023-01-11T16:09:19.893Z,100074.16
2023-01-11T16:11:51.198Z,100079.06
2023-01-11T16:14:51.700Z,100087.06
2023-01-11T16:17:23.084Z,100097.03
2023-01-11T16:19:55.417Z,100095.75
2023-01-11T16:22:25.279Z,100091.97
2023-01-11T16:24:58.541Z,100069.81
2023-01-11T16:27:28.067Z,100101.09
2023-01-11T16:29:56.146Z,100100.25
2023-01-11T16:32:27.115Z,100102.22
2023-01-11T16:34:55.758Z,100100.69
2023-01-11T16:37:29.013Z,100101.66
2023-01-11T16:40:09.303Z,100107.00
2023-01-11T16:42:41.269Z,100105.31
2023-01-11T16:45:11.584Z,100099.97
2023-01-11T16:47:42.087Z,100108.69
2023-01-11T16:50:20.860Z,100101.38
2023-01-11T16:52:49.805Z,100097.72
2023-01-11T16:55:22.541Z,100098.69
2023-01-11T16:57:54.984Z,100087.34
2023-01-11T17:00:32.725Z,100102.06
2023-01-11T17:03:19.441Z,100093.66
2023-01-11T17:06:01.995Z,100074.16
2023-01-11T17:08:31.972Z,100100.25
2023-01-11T17:11:01.019Z,100094.91
2023-01-11T17:14:11.662Z,100096.34
2023-01-11T17:16:40.463Z,100098.16
2023-01-11T17:19:14.011Z,100103.06
2023-01-11T17:21:43.698Z,100100.38
2023-01-11T17:24:12.311Z,100111.06
2023-01-11T17:26:43.974Z,100107.97
2023-01-11T17:29:12.798Z,100105.59
2023-01-11T17:31:40.775Z,100106.16
2023-01-11T17:34:17.408Z,100109.53
2023-01-11T17:36:45.385Z,100110.91
2023-01-11T17:39:16.493Z,100110.91
2023-01-11T17:42:01.960Z,100106.69
2023-01-11T17:44:55.909Z,100113.59
2023-01-11T17:47:23.863Z,100113.47
2023-01-11T17:49:53.213Z,100110.66
2023-01-11T17:52:22.324Z,100109.53
2023-01-11T17:55:01.431Z,100117.69
2023-01-11T17:57:29.468Z,100115.84
2023-01-11T18:00:18.549Z,100111.34
2023-01-11T18:02:46.843Z,100123.53
2023-01-11T18:05:17.844Z,100115.38
2023-01-11T18:07:47.482Z,100105.28
2023-01-11T18:10:19.384Z,100118.47
2023-01-11T18:12:47.462Z,100106.38
2023-01-11T18:15:20.740Z,100092.88
2023-01-11T18:17:53.152Z,100117.03
2023-01-11T18:20:38.805Z,100128.00
2023-01-11T18:23:20.611Z,100127.28
2023-01-11T18:25:48.567Z,100125.19
2023-01-11T18:28:29.607Z,100131.34
2023-01-11T18:30:59.284Z,100133.03
2023-01-11T18:33:29.743Z,100140.63
2023-01-11T18:36:00.116Z,100144.00
2023-01-11T18:38:29.766Z,100145.38
2023-01-11T18:40:58.345Z,100152.81
2023-01-11T18:43:27.802Z,100153.22
2023-01-11T18:45:55.931Z,100150.69
2023-01-11T18:48:24.009Z,100145.78
2023-01-11T18:50:54.560Z,100143.25
2023-01-11T18:53:24.602Z,100148.97
2023-01-11T18:55:52.786Z,100146.72
2023-01-11T18:58:20.746Z,100146.16
2023-01-11T19:00:48.681Z,100152.91
2023-01-11T19:03:16.678Z,100156.53
2023-01-11T19:05:44.643Z,100159.63
2023-01-11T19:08:12.626Z,100174.38
2023-01-11T19:10:41.912Z,100170.59
2023-01-11T19:13:09.866Z,100175.09
2023-01-11T19:15:37.812Z,100166.38
2023-01-11T19:18:06.066Z,100181.53
2023-01-11T19:20:34.021Z,100183.09
2023-01-11T19:23:02.490Z,100187.28
2023-01-11T19:25:30.445Z,100185.47
2023-01-11T19:27:59.792Z,100184.50
2023-01-11T19:30:27.744Z,100168.06
2023-01-11T19:32:55.766Z,100179.25
2023-01-11T19:35:23.986Z,100179.84
2023-01-11T19:37:51.959Z,100178.16
2023-01-11T19:40:21.391Z,100170.03
2023-01-11T19:42:52.411Z,100179.25
2023-01-11T19:45:21.720Z,100183.75
2023-01-11T19:47:49.647Z,100185.38
2023-01-11T19:50:18.101Z,100182.16
2023-01-11T19:52:46.902Z,100182.03
2023-01-11T19:55:14.875Z,100176.72
2023-01-11T19:57:42.857Z,100162.38
2023-01-11T20:00:14.304Z,100169.94
2023-01-11T20:02:43.811Z,100183.00
2023-01-11T20:05:13.513Z,100187.63
2023-01-11T20:07:41.516Z,100178.78
2023-01-11T20:10:10.525Z,100183.69
2023-01-11T20:12:38.512Z,100183.97
2023-01-11T20:15:08.535Z,100179.72
2023-01-11T20:17:37.929Z,100184.50
2023-01-11T20:20:08.284Z,100185.34
2023-01-11T20:22:36.282Z,100195.75
2023-01-11T20:25:04.431Z,100201.19
2023-01-11T20:27:34.146Z,100199.63
2023-01-11T20:30:02.284Z,100213.91
2023-01-11T20:32:41.503Z,100217.00
2023-01-11T20:35:11.917Z,100219.47
2023-01-11T20:37:39.924Z,100210.78
2023-01-11T20:40:08.787Z,100215.50
2023-01-11T20:42:36.770Z,100214.94
2023-01-11T20:45:05.199Z,100209.03
2023-01-11T20:47:33.116Z,100213.50
2023-01-11T20:50:01.029Z,100212.53
2023-01-11T20:52:30.388Z,100214.69
2023-01-11T20:54:58.303Z,100214.94
2023-01-11T20:57:29.293Z,100216.03
2023-01-11T20:59:57.627Z,100195.41
2023-01-11T21:02:25.641Z,100202.59
2023-01-11T21:04:53.639Z,100209.75
2023-01-11T21:07:21.621Z,100208.91
2023-01-11T21:09:50.917Z,100202.34
2023-01-11T21:12:19.581Z,100204.72
2023-01-11T21:14:47.559Z,100201.75
2023-01-11T21:17:15.533Z,100211.81
2023-01-11T21:19:43.827Z,100198.06
2023-01-11T21:22:11.744Z,100208.72
2023-01-11T21:24:41.087Z,100210.00
2023-01-11T21:27:10.505Z,100221.06
2023-01-11T21:29:38.453Z,100228.91
2023-01-11T21:32:07.104Z,100222.63
2023-01-11T21:34:35.041Z,100235.53
2023-01-11T21:37:02.990Z,100242.34
2023-01-11T21:39:30.955Z,100246.22
2023-01-11T21:41:59.860Z,100241.69
2023-01-11T21:44:32.049Z,100242.84
2023-01-11T21:47:00.125Z,100245.25
2023-01-11T21:49:28.051Z,100247.91
2023-01-11T21:51:55.964Z,100252.53
2023-01-11T21:54:23.899Z,100258.81
2023-01-11T21:56:51.909Z,100255.72
2023-01-11T21:59:20.437Z,100264.41
2023-01-11T22:01:49.893Z,100267.06
2023-01-11T22:04:19.363Z,100270.75
2023-01-11T22:06:51.433Z,100260.28
2023-01-11T22:09:20.216Z,100270.16
2023-01-11T22:11:48.235Z,100265.44
2023-01-11T22:14:16.234Z,100257.94
2023-01-11T22:16:44.202Z,100249.22
2023-01-11T22:19:13.547Z,100258.13
2023-01-11T22:21:41.480Z,100258.16
2023-01-11T22:24:10.628Z,100251.69
2023-01-11T22:26:39.127Z,100256.63
2023-01-11T22:29:15.158Z,100249.50
2023-01-11T22:31:45.506Z,100250.75
2023-01-11T22:34:14.993Z,100256.31
2023-01-11T22:36:43.223Z,100243.53
2023-01-11T22:39:11.287Z,100236.97
2023-01-11T22:41:40.194Z,100233.59
2023-01-11T22:44:08.314Z,100234.94
2023-01-11T22:46:36.383Z,100234.34
2023-01-11T22:49:06.051Z,100222.84
2023-01-11T22:51:35.962Z,100229.28
2023-01-11T22:54:04.035Z,100219.22
2023-01-11T22:56:32.009Z,100216.06
2023-01-11T22:58:59.959Z,100215.59
2023-01-11T23:01:30.733Z,100219.59
2023-01-11T23:03:58.864Z,100212.22
2023-01-11T23:06:27.833Z,100202.06
2023-01-11T23:08:57.191Z,100205.00
2023-01-11T23:11:43.529Z,100202.06
2023-01-11T23:14:12.579Z,100201.63
2023-01-11T23:16:40.747Z,100203.31
2023-01-11T23:19:09.156Z,100205.00
2023-01-11T23:21:37.163Z,100219.75
2023-01-11T23:24:07.352Z,100230.13
2023-01-11T23:26:35.320Z,100232.78
2023-01-11T23:29:03.261Z,100223.97
2023-01-11T23:31:31.267Z,100241.72
2023-01-11T23:34:00.296Z,100251.16
2023-01-11T23:36:29.312Z,100246.56
2023-01-11T23:38:57.255Z,100251.16
2023-01-11T23:41:44.215Z,100253.81
2023-01-11T23:44:13.791Z,100250.69
2023-01-11T23:46:55.805Z,100260.09
2023-01-11T23:49:24.741Z,100263.13
2023-01-11T23:51:52.731Z,100263.97
2023-01-11T23:54:20.724Z,100268.06
2023-01-11T23:56:50.111Z,100261.19
2023-01-11T23:59:18.043Z,100266.88
